sensor_id;sensor_type;location;lat;lon;timestamp;P1;durP1;ratioP1;P2;durP2;ratioP2
77586;SDS011;66744;49.716;17.158;2023-11-18T00:02:08;6.20;;;4.28;;
77586;SDS011;66744;49.716;17.158;2023-11-18T00:05:10;7.35;;;4.25;;
77586;SDS011;66744;49.716;17.158;2023-11-18T00:08:12;6.32;;;4.40;;
77586;SDS011;66744;49.716;17.158;2023-11-18T00:11:14;6.13;;;3.92;;
77586;SDS011;66744;49.716;17.158;2023-11-18T00:14:15;5.93;;;4.15;;
77586;SDS011;66744;49.716;17.158;2023-11-18T00:17:16;6.03;;;3.80;;
77586;SDS011;66744;49.716;17.158;2023-11-18T00:20:17;3.80;;;3.15;;
77586;SDS011;66744;49.716;17.158;2023-11-18T00:23:19;4.05;;;3.10;;
77586;SDS011;66744;49.716;17.158;2023-11-18T00:26:20;4.38;;;2.90;;
77586;SDS011;66744;49.716;17.158;2023-11-18T00:29:25;3.63;;;2.83;;
77586;SDS011;66744;49.716;17.158;2023-11-18T00:32:27;3.15;;;2.63;;
77586;SDS011;66744;49.716;17.158;2023-11-18T00:35:29;4.30;;;2.92;;
77586;SDS011;66744;49.716;17.158;2023-11-18T00:38:32;4.30;;;2.72;;
77586;SDS011;66744;49.716;17.158;2023-11-18T00:41:34;4.32;;;2.40;;
77586;SDS011;66744;49.716;17.158;2023-11-18T00:44:37;2.88;;;2.58;;
77586;SDS011;66744;49.716;17.158;2023-11-18T00:47:39;4.85;;;2.78;;
77586;SDS011;66744;49.716;17.158;2023-11-18T00:50:41;4.25;;;2.53;;
77586;SDS011;66744;49.716;17.158;2023-11-18T00:53:43;3.22;;;2.45;;
77586;SDS011;66744;49.716;17.158;2023-11-18T00:56:45;4.03;;;2.47;;
77586;SDS011;66744;49.716;17.158;2023-11-18T00:59:47;5.25;;;2.55;;
77586;SDS011;66744;49.716;17.158;2023-11-18T01:02:48;4.22;;;2.50;;
77586;SDS011;66744;49.716;17.158;2023-11-18T01:05:50;3.05;;;2.75;;
77586;SDS011;66744;49.716;17.158;2023-11-18T01:08:53;2.55;;;2.10;;
77586;SDS011;66744;49.716;17.158;2023-11-18T01:11:54;2.85;;;2.08;;
77586;SDS011;66744;49.716;17.158;2023-11-18T01:14:55;2.72;;;2.10;;
77586;SDS011;66744;49.716;17.158;2023-11-18T01:17:57;3.00;;;2.40;;
77586;SDS011;66744;49.716;17.158;2023-11-18T01:20:58;2.22;;;2.03;;
77586;SDS011;66744;49.716;17.158;2023-11-18T01:23:59;2.17;;;1.98;;
77586;SDS011;66744;49.716;17.158;2023-11-18T01:27:03;2.60;;;2.05;;
77586;SDS011;66744;49.716;17.158;2023-11-18T01:30:05;2.58;;;2.08;;
77586;SDS011;66744;49.716;17.158;2023-11-18T01:33:07;4.32;;;2.25;;
77586;SDS011;66744;49.716;17.158;2023-11-18T01:36:09;2.30;;;2.10;;
77586;SDS011;66744;49.716;17.158;2023-11-18T01:39:10;2.20;;;2.00;;
77586;SDS011;66744;49.716;17.158;2023-11-18T01:42:14;2.70;;;2.22;;
77586;SDS011;66744;49.716;17.158;2023-11-18T01:45:15;3.35;;;2.40;;
77586;SDS011;66744;49.716;17.158;2023-11-18T01:48:21;2.35;;;2.03;;
77586;SDS011;66744;49.716;17.158;2023-11-18T01:51:23;2.45;;;1.70;;
77586;SDS011;66744;49.716;17.158;2023-11-18T01:54:25;3.28;;;1.95;;
77586;SDS011;66744;49.716;17.158;2023-11-18T01:57:27;2.13;;;1.92;;
77586;SDS011;66744;49.716;17.158;2023-11-18T02:04:58;1.92;;;1.30;;
77586;SDS011;66744;49.716;17.158;2023-11-18T02:08:04;1.92;;;1.63;;
77586;SDS011;66744;49.716;17.158;2023-11-18T02:11:14;1.77;;;1.65;;
77586;SDS011;66744;49.716;17.158;2023-11-18T02:14:16;1.80;;;1.55;;
77586;SDS011;66744;49.716;17.158;2023-11-18T02:17:21;1.60;;;1.15;;
77586;SDS011;66744;49.716;17.158;2023-11-18T02:20:26;1.85;;;1.20;;
77586;SDS011;66744;49.716;17.158;2023-11-18T02:23:29;2.28;;;1.88;;
77586;SDS011;66744;49.716;17.158;2023-11-18T02:26:31;2.30;;;1.83;;
77586;SDS011;66744;49.716;17.158;2023-11-18T02:29:34;2.70;;;1.98;;
77586;SDS011;66744;49.716;17.158;2023-11-18T02:32:45;2.35;;;1.95;;
77586;SDS011;66744;49.716;17.158;2023-11-18T02:36:14;2.42;;;2.00;;
77586;SDS011;66744;49.716;17.158;2023-11-18T02:39:27;2.70;;;2.20;;
77586;SDS011;66744;49.716;17.158;2023-11-18T02:42:35;2.42;;;1.90;;
77586;SDS011;66744;49.716;17.158;2023-11-18T02:45:39;1.80;;;1.63;;
77586;SDS011;66744;49.716;17.158;2023-11-18T02:48:42;2.80;;;2.13;;
77586;SDS011;66744;49.716;17.158;2023-11-18T02:51:44;2.53;;;2.00;;
77586;SDS011;66744;49.716;17.158;2023-11-18T02:54:46;2.63;;;2.20;;
77586;SDS011;66744;49.716;17.158;2023-11-18T02:57:47;3.20;;;2.15;;
77586;SDS011;66744;49.716;17.158;2023-11-18T03:00:50;2.97;;;2.53;;
77586;SDS011;66744;49.716;17.158;2023-11-18T03:03:51;2.60;;;1.92;;
77586;SDS011;66744;49.716;17.158;2023-11-18T03:06:52;2.83;;;2.33;;
77586;SDS011;66744;49.716;17.158;2023-11-18T03:09:53;2.75;;;2.13;;
77586;SDS011;66744;49.716;17.158;2023-11-18T03:12:58;2.75;;;2.17;;
77586;SDS011;66744;49.716;17.158;2023-11-18T03:15:59;2.28;;;2.05;;
77586;SDS011;66744;49.716;17.158;2023-11-18T03:19:01;2.65;;;1.95;;
77586;SDS011;66744;49.716;17.158;2023-11-18T03:22:02;2.55;;;1.98;;
77586;SDS011;66744;49.716;17.158;2023-11-18T03:25:04;2.92;;;2.00;;
77586;SDS011;66744;49.716;17.158;2023-11-18T03:28:06;2.72;;;2.10;;
77586;SDS011;66744;49.716;17.158;2023-11-18T03:31:07;2.60;;;2.30;;
77586;SDS011;66744;49.716;17.158;2023-11-18T03:34:10;2.20;;;2.00;;
77586;SDS011;66744;49.716;17.158;2023-11-18T03:37:11;4.22;;;2.30;;
77586;SDS011;66744;49.716;17.158;2023-11-18T03:40:12;2.50;;;2.08;;
77586;SDS011;66744;49.716;17.158;2023-11-18T03:43:15;2.65;;;2.45;;
77586;SDS011;66744;49.716;17.158;2023-11-18T03:46:16;2.53;;;2.00;;
77586;SDS011;66744;49.716;17.158;2023-11-18T03:49:17;3.20;;;2.38;;
77586;SDS011;66744;49.716;17.158;2023-11-18T03:52:20;2.25;;;1.92;;
77586;SDS011;66744;49.716;17.158;2023-11-18T03:55:21;2.50;;;1.67;;
77586;SDS011;66744;49.716;17.158;2023-11-18T03:58:22;2.65;;;1.83;;
77586;SDS011;66744;49.716;17.158;2023-11-18T04:01:24;1.98;;;1.70;;
77586;SDS011;66744;49.716;17.158;2023-11-18T04:04:29;2.40;;;1.92;;
77586;SDS011;66744;49.716;17.158;2023-11-18T04:07:30;2.65;;;1.85;;
77586;SDS011;66744;49.716;17.158;2023-11-18T04:10:32;1.88;;;1.73;;
77586;SDS011;66744;49.716;17.158;2023-11-18T04:13:33;2.10;;;1.90;;
77586;SDS011;66744;49.716;17.158;2023-11-18T04:16:34;2.55;;;1.77;;
77586;SDS011;66744;49.716;17.158;2023-11-18T04:19:35;2.90;;;2.13;;
77586;SDS011;66744;49.716;17.158;2023-11-18T04:22:40;2.17;;;1.98;;
77586;SDS011;66744;49.716;17.158;2023-11-18T04:25:42;2.05;;;1.85;;
77586;SDS011;66744;49.716;17.158;2023-11-18T04:28:43;2.67;;;2.25;;
77586;SDS011;66744;49.716;17.158;2023-11-18T04:31:44;3.28;;;1.80;;
77586;SDS011;66744;49.716;17.158;2023-11-18T04:34:45;2.28;;;1.90;;
77586;SDS011;66744;49.716;17.158;2023-11-18T04:37:46;1.80;;;1.27;;
77586;SDS011;66744;49.716;17.158;2023-11-18T04:40:47;2.28;;;1.52;;
77586;SDS011;66744;49.716;17.158;2023-11-18T04:43:49;2.33;;;1.80;;
77586;SDS011;66744;49.716;17.158;2023-11-18T04:46:51;2.65;;;2.00;;
77586;SDS011;66744;49.716;17.158;2023-11-18T04:49:54;2.45;;;1.63;;
77586;SDS011;66744;49.716;17.158;2023-11-18T04:52:56;2.08;;;1.77;;
77586;SDS011;66744;49.716;17.158;2023-11-18T04:55:57;2.45;;;1.50;;
77586;SDS011;66744;49.716;17.158;2023-11-18T04:58:59;1.95;;;1.73;;
77586;SDS011;66744;49.716;17.158;2023-11-18T05:02:00;2.00;;;1.63;;
77586;SDS011;66744;49.716;17.158;2023-11-18T05:05:03;1.50;;;1.40;;
77586;SDS011;66744;49.716;17.158;2023-11-18T05:08:16;2.80;;;2.10;;
77586;SDS011;66744;49.716;17.158;2023-11-18T05:11:19;2.28;;;1.92;;
77586;SDS011;66744;49.716;17.158;2023-11-18T05:14:21;2.90;;;1.90;;
77586;SDS011;66744;49.716;17.158;2023-11-18T05:17:22;3.42;;;1.73;;
77586;SDS011;66744;49.716;17.158;2023-11-18T05:20:24;2.63;;;1.58;;
77586;SDS011;66744;49.716;17.158;2023-11-18T05:23:25;2.78;;;1.83;;
77586;SDS011;66744;49.716;17.158;2023-11-18T05:26:26;2.13;;;1.52;;
77586;SDS011;66744;49.716;17.158;2023-11-18T05:29:28;2.33;;;2.05;;
77586;SDS011;66744;49.716;17.158;2023-11-18T05:32:29;2.67;;;2.03;;
77586;SDS011;66744;49.716;17.158;2023-11-18T05:35:31;1.80;;;1.45;;
77586;SDS011;66744;49.716;17.158;2023-11-18T05:38:33;3.72;;;2.22;;
77586;SDS011;66744;49.716;17.158;2023-11-18T05:41:36;2.95;;;1.58;;
77586;SDS011;66744;49.716;17.158;2023-11-18T05:44:40;2.22;;;1.75;;
77586;SDS011;66744;49.716;17.158;2023-11-18T05:47:42;1.88;;;1.42;;
77586;SDS011;66744;49.716;17.158;2023-11-18T05:50:43;1.90;;;1.52;;
77586;SDS011;66744;49.716;17.158;2023-11-18T05:53:44;1.98;;;1.70;;
77586;SDS011;66744;49.716;17.158;2023-11-18T05:56:46;2.10;;;1.55;;
77586;SDS011;66744;49.716;17.158;2023-11-18T05:59:47;4.63;;;1.60;;
77586;SDS011;66744;49.716;17.158;2023-11-18T06:02:49;2.13;;;1.50;;
77586;SDS011;66744;49.716;17.158;2023-11-18T06:05:51;1.60;;;1.10;;
77586;SDS011;66744;49.716;17.158;2023-11-18T06:08:52;2.35;;;1.73;;
77586;SDS011;66744;49.716;17.158;2023-11-18T06:11:54;2.33;;;1.80;;
77586;SDS011;66744;49.716;17.158;2023-11-18T06:14:56;3.95;;;1.98;;
77586;SDS011;66744;49.716;17.158;2023-11-18T06:17:58;2.20;;;1.67;;
77586;SDS011;66744;49.716;17.158;2023-11-18T06:20:59;2.03;;;1.65;;
77586;SDS011;66744;49.716;17.158;2023-11-18T06:24:00;2.13;;;1.73;;
77586;SDS011;66744;49.716;17.158;2023-11-18T06:27:04;2.53;;;1.65;;
77586;SDS011;66744;49.716;17.158;2023-11-18T06:30:08;2.00;;;1.73;;
77586;SDS011;66744;49.716;17.158;2023-11-18T06:33:12;2.90;;;1.73;;
77586;SDS011;66744;49.716;17.158;2023-11-18T06:39:15;2.83;;;2.17;;
77586;SDS011;66744;49.716;17.158;2023-11-18T06:42:17;3.28;;;2.05;;
77586;SDS011;66744;49.716;17.158;2023-11-18T06:45:18;3.03;;;2.00;;
77586;SDS011;66744;49.716;17.158;2023-11-18T06:48:19;2.47;;;1.98;;
77586;SDS011;66744;49.716;17.158;2023-11-18T06:51:25;2.47;;;1.95;;
77586;SDS011;66744;49.716;17.158;2023-11-18T06:54:28;2.60;;;2.05;;
77586;SDS011;66744;49.716;17.158;2023-11-18T06:57:29;2.13;;;1.90;;
77586;SDS011;66744;49.716;17.158;2023-11-18T07:00:31;2.83;;;1.92;;
77586;SDS011;66744;49.716;17.158;2023-11-18T07:03:32;2.90;;;1.95;;
77586;SDS011;66744;49.716;17.158;2023-11-18T07:06:34;2.00;;;1.60;;
77586;SDS011;66744;49.716;17.158;2023-11-18T07:09:39;3.28;;;1.42;;
77586;SDS011;66744;49.716;17.158;2023-11-18T07:12:40;2.53;;;1.88;;
77586;SDS011;66744;49.716;17.158;2023-11-18T07:15:41;6.65;;;1.60;;
77586;SDS011;66744;49.716;17.158;2023-11-18T07:18:43;1.98;;;1.63;;
77586;SDS011;66744;49.716;17.158;2023-11-18T07:21:45;1.98;;;1.58;;
77586;SDS011;66744;49.716;17.158;2023-11-18T07:24:47;1.52;;;1.25;;
77586;SDS011;66744;49.716;17.158;2023-11-18T07:27:48;1.90;;;1.55;;
77586;SDS011;66744;49.716;17.158;2023-11-18T07:30:50;1.23;;;1.13;;
77586;SDS011;66744;49.716;17.158;2023-11-18T07:33:51;1.85;;;1.42;;
77586;SDS011;66744;49.716;17.158;2023-11-18T07:36:53;1.95;;;1.60;;
77586;SDS011;66744;49.716;17.158;2023-11-18T07:39:56;1.52;;;1.42;;
77586;SDS011;66744;49.716;17.158;2023-11-18T07:43:03;1.98;;;1.63;;
77586;SDS011;66744;49.716;17.158;2023-11-18T07:46:04;1.67;;;1.25;;
77586;SDS011;66744;49.716;17.158;2023-11-18T07:49:08;2.08;;;1.60;;
77586;SDS011;66744;49.716;17.158;2023-11-18T07:52:09;2.10;;;1.73;;
77586;SDS011;66744;49.716;17.158;2023-11-18T07:55:11;2.35;;;1.80;;
77586;SDS011;66744;49.716;17.158;2023-11-18T07:58:13;3.70;;;1.50;;
77586;SDS011;66744;49.716;17.158;2023-11-18T08:01:15;3.28;;;2.72;;
77586;SDS011;66744;49.716;17.158;2023-11-18T08:04:19;2.60;;;2.17;;
77586;SDS011;66744;49.716;17.158;2023-11-18T08:07:21;2.40;;;1.75;;
77586;SDS011;66744;49.716;17.158;2023-11-18T08:10:23;2.50;;;2.28;;
77586;SDS011;66744;49.716;17.158;2023-11-18T08:13:25;3.10;;;2.60;;
77586;SDS011;66744;49.716;17.158;2023-11-18T08:16:31;2.58;;;2.20;;
77586;SDS011;66744;49.716;17.158;2023-11-18T08:19:33;2.97;;;1.95;;
77586;SDS011;66744;49.716;17.158;2023-11-18T08:22:35;33.50;;;13.18;;
77586;SDS011;66744;49.716;17.158;2023-11-18T08:25:36;27.50;;;13.70;;
77586;SDS011;66744;49.716;17.158;2023-11-18T08:28:38;4.00;;;2.83;;
77586;SDS011;66744;49.716;17.158;2023-11-18T08:31:39;4.65;;;4.07;;
77586;SDS011;66744;49.716;17.158;2023-11-18T08:34:40;5.32;;;2.83;;
77586;SDS011;66744;49.716;17.158;2023-11-18T08:37:42;5.47;;;2.17;;
77586;SDS011;66744;49.716;17.158;2023-11-18T08:40:43;5.10;;;2.20;;
77586;SDS011;66744;49.716;17.158;2023-11-18T08:43:45;3.45;;;2.25;;
77586;SDS011;66744;49.716;17.158;2023-11-18T08:46:53;3.15;;;1.73;;
77586;SDS011;66744;49.716;17.158;2023-11-18T08:49:54;3.33;;;1.80;;
77586;SDS011;66744;49.716;17.158;2023-11-18T08:52:55;1.90;;;1.45;;
77586;SDS011;66744;49.716;17.158;2023-11-18T08:55:59;2.28;;;1.58;;
77586;SDS011;66744;49.716;17.158;2023-11-18T08:59:06;2.55;;;1.90;;
77586;SDS011;66744;49.716;17.158;2023-11-18T09:02:09;3.13;;;1.90;;
77586;SDS011;66744;49.716;17.158;2023-11-18T09:05:15;3.03;;;2.35;;
77586;SDS011;66744;49.716;17.158;2023-11-18T09:08:20;25.90;;;3.67;;
77586;SDS011;66744;49.716;17.158;2023-11-18T09:11:23;23.15;;;3.13;;
77586;SDS011;66744;49.716;17.158;2023-11-18T09:14:28;2.28;;;1.45;;
77586;SDS011;66744;49.716;17.158;2023-11-18T09:17:29;5.45;;;2.30;;
77586;SDS011;66744;49.716;17.158;2023-11-18T09:20:30;5.07;;;1.63;;
77586;SDS011;66744;49.716;17.158;2023-11-18T09:23:32;2.92;;;1.70;;
77586;SDS011;66744;49.716;17.158;2023-11-18T09:26:38;3.28;;;1.27;;
77586;SDS011;66744;49.716;17.158;2023-11-18T09:29:40;3.47;;;1.77;;
77586;SDS011;66744;49.716;17.158;2023-11-18T09:32:42;3.78;;;1.38;;
77586;SDS011;66744;49.716;17.158;2023-11-18T09:35:44;10.02;;;1.90;;
77586;SDS011;66744;49.716;17.158;2023-11-18T09:38:46;3.63;;;1.40;;
77586;SDS011;66744;49.716;17.158;2023-11-18T09:41:47;2.00;;;1.50;;
77586;SDS011;66744;49.716;17.158;2023-11-18T09:44:50;3.47;;;1.90;;
77586;SDS011;66744;49.716;17.158;2023-11-18T09:47:51;3.42;;;1.95;;
77586;SDS011;66744;49.716;17.158;2023-11-18T09:50:54;4.60;;;2.60;;
77586;SDS011;66744;49.716;17.158;2023-11-18T09:54:04;4.00;;;2.10;;
77586;SDS011;66744;49.716;17.158;2023-11-18T10:00:27;9.73;;;4.38;;
77586;SDS011;66744;49.716;17.158;2023-11-18T10:03:33;6.72;;;3.65;;
77586;SDS011;66744;49.716;17.158;2023-11-18T10:06:36;13.07;;;4.72;;
77586;SDS011;66744;49.716;17.158;2023-11-18T10:09:39;9.60;;;3.30;;
77586;SDS011;66744;49.716;17.158;2023-11-18T10:12:44;9.48;;;5.07;;
77586;SDS011;66744;49.716;17.158;2023-11-18T10:15:46;10.70;;;4.68;;
77586;SDS011;66744;49.716;17.158;2023-11-18T10:18:48;29.15;;;10.77;;
77586;SDS011;66744;49.716;17.158;2023-11-18T10:21:52;11.65;;;5.50;;
77586;SDS011;66744;49.716;17.158;2023-11-18T10:24:53;2.65;;;1.92;;
77586;SDS011;66744;49.716;17.158;2023-11-18T10:27:55;4.05;;;2.53;;
77586;SDS011;66744;49.716;17.158;2023-11-18T10:31:07;3.38;;;2.15;;
77586;SDS011;66744;49.716;17.158;2023-11-18T10:34:11;5.78;;;3.17;;
77586;SDS011;66744;49.716;17.158;2023-11-18T10:37:18;2.38;;;1.83;;
77586;SDS011;66744;49.716;17.158;2023-11-18T10:40:20;6.03;;;3.30;;
77586;SDS011;66744;49.716;17.158;2023-11-18T10:43:25;3.22;;;1.85;;
77586;SDS011;66744;49.716;17.158;2023-11-18T10:46:26;3.58;;;1.80;;
77586;SDS011;66744;49.716;17.158;2023-11-18T10:49:27;3.80;;;2.15;;
77586;SDS011;66744;49.716;17.158;2023-11-18T10:52:29;2.85;;;2.00;;
77586;SDS011;66744;49.716;17.158;2023-11-18T10:55:36;3.08;;;1.73;;
77586;SDS011;66744;49.716;17.158;2023-11-18T10:58:38;4.53;;;2.22;;
77586;SDS011;66744;49.716;17.158;2023-11-18T11:01:42;3.58;;;2.15;;
77586;SDS011;66744;49.716;17.158;2023-11-18T11:04:44;3.30;;;1.92;;
77586;SDS011;66744;49.716;17.158;2023-11-18T11:07:46;2.83;;;1.88;;
77586;SDS011;66744;49.716;17.158;2023-11-18T11:10:49;13.20;;;5.80;;
77586;SDS011;66744;49.716;17.158;2023-11-18T11:13:57;5.28;;;3.05;;
77586;SDS011;66744;49.716;17.158;2023-11-18T11:17:05;4.72;;;2.72;;
77586;SDS011;66744;49.716;17.158;2023-11-18T11:20:12;3.55;;;2.40;;
77586;SDS011;66744;49.716;17.158;2023-11-18T11:27:09;3.85;;;2.20;;
77586;SDS011;66744;49.716;17.158;2023-11-18T11:30:22;3.10;;;1.80;;
77586;SDS011;66744;49.716;17.158;2023-11-18T11:33:29;3.10;;;2.10;;
77586;SDS011;66744;49.716;17.158;2023-11-18T11:36:46;4.93;;;2.95;;
77586;SDS011;66744;49.716;17.158;2023-11-18T11:39:50;7.60;;;3.47;;
77586;SDS011;66744;49.716;17.158;2023-11-18T11:42:54;6.55;;;3.83;;
77586;SDS011;66744;49.716;17.158;2023-11-18T11:45:56;4.18;;;1.98;;
77586;SDS011;66744;49.716;17.158;2023-11-18T11:48:58;3.47;;;2.25;;
77586;SDS011;66744;49.716;17.158;2023-11-18T11:52:15;9.48;;;1.95;;
77586;SDS011;66744;49.716;17.158;2023-11-18T11:55:29;4.63;;;2.80;;
77586;SDS011;66744;49.716;17.158;2023-11-18T11:58:40;2.63;;;1.70;;
77586;SDS011;66744;49.716;17.158;2023-11-18T12:01:45;9.55;;;2.83;;
77586;SDS011;66744;49.716;17.158;2023-11-18T12:04:53;3.58;;;2.33;;
77586;SDS011;66744;49.716;17.158;2023-11-18T12:07:59;3.05;;;2.00;;
77586;SDS011;66744;49.716;17.158;2023-11-18T12:11:00;3.50;;;1.83;;
77586;SDS011;66744;49.716;17.158;2023-11-18T12:14:04;2.05;;;1.38;;
77586;SDS011;66744;49.716;17.158;2023-11-18T12:17:33;2.47;;;1.70;;
77586;SDS011;66744;49.716;17.158;2023-11-18T12:20:56;3.08;;;2.00;;
77586;SDS011;66744;49.716;17.158;2023-11-18T12:24:15;2.65;;;1.98;;
77586;SDS011;66744;49.716;17.158;2023-11-18T12:30:41;2.63;;;1.83;;
77586;SDS011;66744;49.716;17.158;2023-11-18T12:37:55;1.92;;;1.63;;
77586;SDS011;66744;49.716;17.158;2023-11-18T12:40:54;3.38;;;2.33;;
77586;SDS011;66744;49.716;17.158;2023-11-18T12:47:11;1.92;;;1.23;;
77586;SDS011;66744;49.716;17.158;2023-11-18T12:50:19;3.75;;;1.90;;
77586;SDS011;66744;49.716;17.158;2023-11-18T12:53:25;4.60;;;1.98;;
77586;SDS011;66744;49.716;17.158;2023-11-18T12:56:27;3.75;;;2.05;;
77586;SDS011;66744;49.716;17.158;2023-11-18T12:59:30;3.05;;;1.77;;
77586;SDS011;66744;49.716;17.158;2023-11-18T13:02:31;3.65;;;2.15;;
77586;SDS011;66744;49.716;17.158;2023-11-18T13:05:33;3.47;;;1.98;;
77586;SDS011;66744;49.716;17.158;2023-11-18T13:08:34;3.42;;;2.40;;
77586;SDS011;66744;49.716;17.158;2023-11-18T13:11:36;3.13;;;1.80;;
77586;SDS011;66744;49.716;17.158;2023-11-18T13:14:39;2.20;;;1.60;;
77586;SDS011;66744;49.716;17.158;2023-11-18T13:17:40;1.83;;;1.40;;
77586;SDS011;66744;49.716;17.158;2023-11-18T13:20:42;3.47;;;2.47;;
77586;SDS011;66744;49.716;17.158;2023-11-18T13:23:55;3.13;;;2.00;;
77586;SDS011;66744;49.716;17.158;2023-11-18T13:26:56;3.60;;;2.30;;
77586;SDS011;66744;49.716;17.158;2023-11-18T13:29:59;6.35;;;2.50;;
77586;SDS011;66744;49.716;17.158;2023-11-18T13:33:00;2.42;;;1.67;;
77586;SDS011;66744;49.716;17.158;2023-11-18T13:36:03;2.72;;;1.88;;
77586;SDS011;66744;49.716;17.158;2023-11-18T13:39:06;3.83;;;2.25;;
77586;SDS011;66744;49.716;17.158;2023-11-18T13:42:18;2.85;;;2.00;;
77586;SDS011;66744;49.716;17.158;2023-11-18T13:45:24;3.67;;;2.30;;
77586;SDS011;66744;49.716;17.158;2023-11-18T13:48:27;4.07;;;3.20;;
77586;SDS011;66744;49.716;17.158;2023-11-18T13:51:29;5.28;;;3.22;;
77586;SDS011;66744;49.716;17.158;2023-11-18T13:54:31;3.33;;;2.28;;
77586;SDS011;66744;49.716;17.158;2023-11-18T13:57:33;3.58;;;2.00;;
77586;SDS011;66744;49.716;17.158;2023-11-18T14:00:35;4.53;;;2.17;;
77586;SDS011;66744;49.716;17.158;2023-11-18T14:03:36;4.07;;;2.40;;
77586;SDS011;66744;49.716;17.158;2023-11-18T14:06:38;3.90;;;2.53;;
77586;SDS011;66744;49.716;17.158;2023-11-18T14:09:40;8.27;;;4.05;;
77586;SDS011;66744;49.716;17.158;2023-11-18T14:16:20;10.52;;;5.05;;
77586;SDS011;66744;49.716;17.158;2023-11-18T14:19:27;3.92;;;2.85;;
77586;SDS011;66744;49.716;17.158;2023-11-18T14:22:32;3.20;;;2.13;;
77586;SDS011;66744;49.716;17.158;2023-11-18T14:25:33;3.28;;;2.22;;
77586;SDS011;66744;49.716;17.158;2023-11-18T14:28:35;4.63;;;2.63;;
77586;SDS011;66744;49.716;17.158;2023-11-18T14:31:37;2.88;;;2.38;;
77586;SDS011;66744;49.716;17.158;2023-11-18T14:34:38;5.13;;;3.63;;
77586;SDS011;66744;49.716;17.158;2023-11-18T14:37:39;4.18;;;2.55;;
77586;SDS011;66744;49.716;17.158;2023-11-18T14:40:42;8.68;;;2.30;;
77586;SDS011;66744;49.716;17.158;2023-11-18T14:43:44;4.85;;;3.00;;
77586;SDS011;66744;49.716;17.158;2023-11-18T14:58:32;17.77;;;4.82;;
77586;SDS011;66744;49.716;17.158;2023-11-18T15:01:33;6.15;;;3.47;;
77586;SDS011;66744;49.716;17.158;2023-11-18T15:04:34;5.75;;;3.40;;
77586;SDS011;66744;49.716;17.158;2023-11-18T15:07:36;5.28;;;3.30;;
77586;SDS011;66744;49.716;17.158;2023-11-18T15:10:37;5.15;;;3.90;;
77586;SDS011;66744;49.716;17.158;2023-11-18T15:13:40;5.57;;;3.70;;
77586;SDS011;66744;49.716;17.158;2023-11-18T15:16:42;3.90;;;2.80;;
77586;SDS011;66744;49.716;17.158;2023-11-18T15:19:44;5.22;;;3.58;;
77586;SDS011;66744;49.716;17.158;2023-11-18T15:22:45;4.85;;;3.22;;
77586;SDS011;66744;49.716;17.158;2023-11-18T15:25:47;4.50;;;3.15;;
77586;SDS011;66744;49.716;17.158;2023-11-18T15:28:50;5.55;;;3.38;;
77586;SDS011;66744;49.716;17.158;2023-11-18T15:31:53;4.72;;;2.60;;
77586;SDS011;66744;49.716;17.158;2023-11-18T15:34:55;4.13;;;2.67;;
77586;SDS011;66744;49.716;17.158;2023-11-18T15:37:58;3.92;;;2.72;;
77586;SDS011;66744;49.716;17.158;2023-11-18T15:40:59;5.63;;;3.20;;
77586;SDS011;66744;49.716;17.158;2023-11-18T15:44:01;4.63;;;2.58;;
77586;SDS011;66744;49.716;17.158;2023-11-18T15:47:02;4.60;;;3.13;;
77586;SDS011;66744;49.716;17.158;2023-11-18T15:50:04;6.80;;;3.85;;
77586;SDS011;66744;49.716;17.158;2023-11-18T15:53:07;8.68;;;5.78;;
77586;SDS011;66744;49.716;17.158;2023-11-18T15:56:08;7.78;;;5.25;;
77586;SDS011;66744;49.716;17.158;2023-11-18T15:59:12;7.40;;;4.35;;
77586;SDS011;66744;49.716;17.158;2023-11-18T16:02:13;7.88;;;4.43;;
77586;SDS011;66744;49.716;17.158;2023-11-18T16:05:16;7.03;;;4.38;;
77586;SDS011;66744;49.716;17.158;2023-11-18T16:08:18;5.00;;;3.47;;
77586;SDS011;66744;49.716;17.158;2023-11-18T16:11:19;8.32;;;4.72;;
77586;SDS011;66744;49.716;17.158;2023-11-18T16:14:20;6.10;;;4.07;;
77586;SDS011;66744;49.716;17.158;2023-11-18T16:17:22;6.97;;;3.95;;
77586;SDS011;66744;49.716;17.158;2023-11-18T16:20:24;7.65;;;4.00;;
77586;SDS011;66744;49.716;17.158;2023-11-18T16:23:26;6.70;;;3.92;;
77586;SDS011;66744;49.716;17.158;2023-11-18T16:26:30;5.68;;;3.60;;
77586;SDS011;66744;49.716;17.158;2023-11-18T16:29:34;7.40;;;4.55;;
77586;SDS011;66744;49.716;17.158;2023-11-18T16:32:36;5.30;;;3.90;;
77586;SDS011;66744;49.716;17.158;2023-11-18T16:35:37;7.72;;;4.72;;
77586;SDS011;66744;49.716;17.158;2023-11-18T16:38:38;7.55;;;5.18;;
77586;SDS011;66744;49.716;17.158;2023-11-18T16:41:39;6.13;;;4.22;;
77586;SDS011;66744;49.716;17.158;2023-11-18T16:44:41;8.07;;;5.05;;
77586;SDS011;66744;49.716;17.158;2023-11-18T16:47:45;7.00;;;4.05;;
77586;SDS011;66744;49.716;17.158;2023-11-18T16:50:47;7.38;;;4.10;;
77586;SDS011;66744;49.716;17.158;2023-11-18T16:53:50;7.68;;;5.03;;
77586;SDS011;66744;49.716;17.158;2023-11-18T16:56:52;10.40;;;5.20;;
77586;SDS011;66744;49.716;17.158;2023-11-18T16:59:54;9.68;;;6.00;;
77586;SDS011;66744;49.716;17.158;2023-11-18T17:02:59;12.18;;;7.30;;
77586;SDS011;66744;49.716;17.158;2023-11-18T17:06:01;10.63;;;6.70;;
77586;SDS011;66744;49.716;17.158;2023-11-18T17:09:02;8.88;;;5.28;;
77586;SDS011;66744;49.716;17.158;2023-11-18T17:12:06;10.63;;;6.55;;
77586;SDS011;66744;49.716;17.158;2023-11-18T17:15:08;11.88;;;6.30;;
77586;SDS011;66744;49.716;17.158;2023-11-18T17:18:16;11.05;;;6.25;;
77586;SDS011;66744;49.716;17.158;2023-11-18T17:21:17;9.85;;;6.68;;
77586;SDS011;66744;49.716;17.158;2023-11-18T17:24:18;10.25;;;6.35;;
77586;SDS011;66744;49.716;17.158;2023-11-18T17:27:19;14.55;;;8.60;;
77586;SDS011;66744;49.716;17.158;2023-11-18T17:30:21;12.95;;;5.82;;
77586;SDS011;66744;49.716;17.158;2023-11-18T17:33:23;11.23;;;6.30;;
77586;SDS011;66744;49.716;17.158;2023-11-18T17:36:24;11.63;;;6.32;;
77586;SDS011;66744;49.716;17.158;2023-11-18T17:39:26;9.00;;;6.00;;
77586;SDS011;66744;49.716;17.158;2023-11-18T17:42:27;10.98;;;6.20;;
77586;SDS011;66744;49.716;17.158;2023-11-18T17:45:29;10.73;;;5.85;;
77586;SDS011;66744;49.716;17.158;2023-11-18T17:48:30;10.40;;;5.32;;
77586;SDS011;66744;49.716;17.158;2023-11-18T17:51:31;12.82;;;7.07;;
77586;SDS011;66744;49.716;17.158;2023-11-18T17:54:33;11.55;;;7.65;;
77586;SDS011;66744;49.716;17.158;2023-11-18T17:57:34;11.43;;;7.55;;
77586;SDS011;66744;49.716;17.158;2023-11-18T18:00:36;14.68;;;8.05;;
77586;SDS011;66744;49.716;17.158;2023-11-18T18:03:37;16.50;;;10.35;;
77586;SDS011;66744;49.716;17.158;2023-11-18T18:06:38;21.77;;;13.02;;
77586;SDS011;66744;49.716;17.158;2023-11-18T18:09:40;21.00;;;11.32;;
77586;SDS011;66744;49.716;17.158;2023-11-18T18:12:41;17.98;;;10.48;;
77586;SDS011;66744;49.716;17.158;2023-11-18T18:15:42;14.73;;;10.35;;
77586;SDS011;66744;49.716;17.158;2023-11-18T18:18:43;28.00;;;14.07;;
77586;SDS011;66744;49.716;17.158;2023-11-18T18:21:45;40.28;;;17.70;;
77586;SDS011;66744;49.716;17.158;2023-11-18T18:24:46;36.85;;;17.48;;
77586;SDS011;66744;49.716;17.158;2023-11-18T18:27:48;32.05;;;17.10;;
77586;SDS011;66744;49.716;17.158;2023-11-18T18:30:50;45.97;;;22.75;;
77586;SDS011;66744;49.716;17.158;2023-11-18T18:33:52;27.92;;;16.50;;
77586;SDS011;66744;49.716;17.158;2023-11-18T18:36:53;54.83;;;26.88;;
77586;SDS011;66744;49.716;17.158;2023-11-18T18:39:54;50.42;;;26.25;;
77586;SDS011;66744;49.716;17.158;2023-11-18T18:42:55;34.97;;;21.38;;
77586;SDS011;66744;49.716;17.158;2023-11-18T18:45:58;41.42;;;24.25;;